sensor_id;sensor_type;location;lat;lon;timestamp;pressure;altitude;pressure_sealevel;temperature;humidity
29879;BME280;16752;53.364;-1.488;2023-08-01T00:01:37;98491.66;;;21.48;46.81
29879;BME280;16752;53.364;-1.488;2023-08-01T00:04:21;98554.94;;;22.34;46.18
29879;BME280;16752;53.364;-1.488;2023-08-01T00:07:21;98589.06;;;22.01;46.88
29879;BME280;16752;53.364;-1.488;2023-08-01T00:10:15;98593.63;;;21.30;47.94
29879;BME280;16752;53.364;-1.488;2023-08-01T00:13:02;98534.06;;;21.12;47.15
29879;BME280;16752;53.364;-1.488;2023-08-01T00:18:43;98542.47;;;21.47;46.72
29879;BME280;16752;53.364;-1.488;2023-08-01T00:21:28;98484.13;;;21.07;47.02
29879;BME280;16752;53.364;-1.488;2023-08-01T00:24:50;98516.25;;;21.50;46.48
29879;BME280;16752;53.364;-1.488;2023-08-01T00:28:27;98631.53;;;21.64;47.73
29879;BME280;16752;53.364;-1.488;2023-08-01T00:31:14;98543.56;;;21.71;46.42
29879;BME280;16752;53.364;-1.488;2023-08-01T00:36:55;98477.19;;;21.62;45.66
29879;BME280;16752;53.364;-1.488;2023-08-01T00:40:01;98648.94;;;22.54;45.58
29879;BME280;16752;53.364;-1.488;2023-08-01T00:57:53;98558.47;;;22.03;45.86
29879;BME280;16752;53.364;-1.488;2023-08-01T01:12:33;98641.53;;;22.75;45.09
29879;BME280;16752;53.364;-1.488;2023-08-01T01:20:50;98473.16;;;21.78;45.55
29879;BME280;16752;53.364;-1.488;2023-08-01T01:23:39;98574.44;;;22.10;46.06
29879;BME280;16752;53.364;-1.488;2023-08-01T01:29:41;98494.16;;;21.43;46.17
29879;BME280;16752;53.364;-1.488;2023-08-01T01:32:28;98510.88;;;22.07;45.16
29879;BME280;16752;53.364;-1.488;2023-08-01T01:38:43;98654.91;;;22.75;45.46
29879;BME280;16752;53.364;-1.488;2023-08-01T01:44:09;98529.38;;;21.77;46.78
29879;BME280;16752;53.364;-1.488;2023-08-01T01:53:54;98645.69;;;22.71;47.01
29879;BME280;16752;53.364;-1.488;2023-08-01T01:57:33;98517.84;;;22.08;46.09
29879;BME280;16752;53.364;-1.488;2023-08-01T02:44:31;98492.44;;;22.23;44.64
29879;BME280;16752;53.364;-1.488;2023-08-01T03:06:55;98494.06;;;22.24;44.17
29879;BME280;16752;53.364;-1.488;2023-08-01T03:16:30;98554.31;;;22.14;45.36
29879;BME280;16752;53.364;-1.488;2023-08-01T03:21:57;98529.56;;;22.25;44.27
29879;BME280;16752;53.364;-1.488;2023-08-01T03:43:17;98559.66;;;22.14;44.95
29879;BME280;16752;53.364;-1.488;2023-08-01T04:00:27;98448.53;;;21.58;44.26
29879;BME280;16752;53.364;-1.488;2023-08-01T04:08:40;98513.13;;;22.28;43.54
29879;BME280;16752;53.364;-1.488;2023-08-01T04:14:39;98564.75;;;22.34;44.94
29879;BME280;16752;53.364;-1.488;2023-08-01T04:24:20;98622.63;;;22.15;46.24
29879;BME280;16752;53.364;-1.488;2023-08-01T04:34:47;98543.78;;;21.38;47.88
29879;BME280;16752;53.364;-1.488;2023-08-01T04:37:36;98592.81;;;21.30;49.18
29879;BME280;16752;53.364;-1.488;2023-08-01T04:40:31;98511.34;;;20.58;49.95
29879;BME280;16752;53.364;-1.488;2023-08-01T04:43:15;98502.06;;;20.80;49.39
29879;BME280;16752;53.364;-1.488;2023-08-01T04:52:38;98562.47;;;21.62;48.38
29879;BME280;16752;53.364;-1.488;2023-08-01T05:05:10;98654.34;;;20.95;50.36
29879;BME280;16752;53.364;-1.488;2023-08-01T05:24:05;98587.50;;;22.18;47.21
29879;BME280;16752;53.364;-1.488;2023-08-01T05:26:59;98534.31;;;21.48;47.61
29879;BME280;16752;53.364;-1.488;2023-08-01T05:38:56;98537.59;;;21.75;47.31
29879;BME280;16752;53.364;-1.488;2023-08-01T05:44:24;98557.88;;;21.76;47.44
29879;BME280;16752;53.364;-1.488;2023-08-01T05:53:45;98652.94;;;22.45;46.64
29879;BME280;16752;53.364;-1.488;2023-08-01T05:56:37;98699.25;;;21.94;48.18
29879;BME280;16752;53.364;-1.488;2023-08-01T06:10:00;98636.09;;;22.88;45.12
29879;BME280;16752;53.364;-1.488;2023-08-01T06:16:30;98651.00;;;22.77;45.45
29879;BME280;16752;53.364;-1.488;2023-08-01T06:19:14;98717.19;;;22.94;45.35
29879;BME280;16752;53.364;-1.488;2023-08-01T06:21:58;98663.06;;;23.05;44.17
29879;BME280;16752;53.364;-1.488;2023-08-01T06:24:44;98573.31;;;21.23;46.63
29879;BME280;16752;53.364;-1.488;2023-08-01T06:27:39;98635.78;;;22.03;45.53
29879;BME280;16752;53.364;-1.488;2023-08-01T06:30:30;98714.22;;;22.77;46.04
29879;BME280;16752;53.364;-1.488;2023-08-01T06:33:19;98714.34;;;22.64;45.93
29879;BME280;16752;53.364;-1.488;2023-08-01T06:36:04;98595.16;;;22.33;44.45
29879;BME280;16752;53.364;-1.488;2023-08-01T07:02:24;98610.03;;;22.22;44.65
29879;BME280;16752;53.364;-1.488;2023-08-01T07:06:04;98735.00;;;22.50;45.86
29879;BME280;16752;53.364;-1.488;2023-08-01T07:09:11;98724.16;;;22.70;45.65
29879;BME280;16752;53.364;-1.488;2023-08-01T07:27:11;98744.31;;;23.34;44.01
29879;BME280;16752;53.364;-1.488;2023-08-01T07:30:02;98708.06;;;21.95;46.09
29879;BME280;16752;53.364;-1.488;2023-08-01T07:33:06;98687.91;;;22.37;45.38
29879;BME280;16752;53.364;-1.488;2023-08-01T07:35:50;98759.03;;;23.61;44.29
29879;BME280;16752;53.364;-1.488;2023-08-01T07:38:35;98704.28;;;22.09;46.04
29879;BME280;16752;53.364;-1.488;2023-08-01T07:41:18;98659.31;;;22.44;45.08
29879;BME280;16752;53.364;-1.488;2023-08-01T07:44:04;98690.88;;;22.47;44.80
29879;BME280;16752;53.364;-1.488;2023-08-01T07:49:30;98772.66;;;23.35;44.06
29879;BME280;16752;53.364;-1.488;2023-08-01T07:52:26;98639.03;;;23.53;42.68
29879;BME280;16752;53.364;-1.488;2023-08-01T07:55:12;98725.06;;;24.10;42.03
29879;BME280;16752;53.364;-1.488;2023-08-01T07:58:18;98767.19;;;24.45;42.22
29879;BME280;16752;53.364;-1.488;2023-08-01T08:01:04;98692.28;;;24.15;41.25
29879;BME280;16752;53.364;-1.488;2023-08-01T08:03:48;98764.16;;;24.41;41.73
29879;BME280;16752;53.364;-1.488;2023-08-01T08:09:45;98719.22;;;24.43;40.24
29879;BME280;16752;53.364;-1.488;2023-08-01T08:12:30;98751.28;;;23.90;41.36
29879;BME280;16752;53.364;-1.488;2023-08-01T08:15:14;98776.06;;;24.68;40.61
29879;BME280;16752;53.364;-1.488;2023-08-01T08:18:02;98784.91;;;24.27;41.02
29879;BME280;16752;53.364;-1.488;2023-08-01T08:20:52;98774.41;;;24.44;41.06
29879;BME280;16752;53.364;-1.488;2023-08-01T08:26:41;98721.56;;;22.88;43.47
29879;BME280;16752;53.364;-1.488;2023-08-01T08:39:05;98655.78;;;22.69;43.47
29879;BME280;16752;53.364;-1.488;2023-08-01T08:41:55;98722.53;;;24.15;40.88
29879;BME280;16752;53.364;-1.488;2023-08-01T08:44:43;98662.34;;;24.06;40.76
29879;BME280;16752;53.364;-1.488;2023-08-01T08:47:53;98789.31;;;23.92;42.12
29879;BME280;16752;53.364;-1.488;2023-08-01T09:16:32;98815.50;;;23.46;45.18
29879;BME280;16752;53.364;-1.488;2023-08-01T09:28:45;98688.16;;;22.54;45.18
29879;BME280;16752;53.364;-1.488;2023-08-01T09:35:11;98839.97;;;22.37;46.29
29879;BME280;16752;53.364;-1.488;2023-08-01T09:41:24;98723.88;;;23.03;44.16
29879;BME280;16752;53.364;-1.488;2023-08-01T09:44:35;98843.59;;;22.81;45.29
29879;BME280;16752;53.364;-1.488;2023-08-01T09:47:23;98726.53;;;21.52;46.12
29879;BME280;16752;53.364;-1.488;2023-08-01T09:50:09;98806.81;;;22.51;45.51
29879;BME280;16752;53.364;-1.488;2023-08-01T10:15:13;98769.09;;;23.96;42.48
29879;BME280;16752;53.364;-1.488;2023-08-01T10:18:10;98836.53;;;23.43;43.31
29879;BME280;16752;53.364;-1.488;2023-08-01T10:51:17;98770.31;;;25.42;38.72
29879;BME280;16752;53.364;-1.488;2023-08-01T10:54:02;98736.13;;;24.67;38.84
29879;BME280;16752;53.364;-1.488;2023-08-01T11:07:04;98856.38;;;26.44;38.07
29879;BME280;16752;53.364;-1.488;2023-08-01T11:51:01;98804.47;;;25.23;39.07
29879;BME280;16752;53.364;-1.488;2023-08-01T12:06:33;98888.25;;;25.65;38.65
29879;BME280;16752;53.364;-1.488;2023-08-01T12:18:31;98773.00;;;25.30;37.84
29879;BME280;16752;53.364;-1.488;2023-08-01T12:49:22;98746.25;;;25.70;37.66
29879;BME280;16752;53.364;-1.488;2023-08-01T13:09:24;98896.97;;;27.04;37.56
29879;BME280;16752;53.364;-1.488;2023-08-01T13:15:04;98824.28;;;26.83;35.03
29879;BME280;16752;53.364;-1.488;2023-08-01T13:18:23;98796.13;;;26.68;35.23
29879;BME280;16752;53.364;-1.488;2023-08-01T13:23:51;98817.47;;;25.54;36.96
29879;BME280;16752;53.364;-1.488;2023-08-01T13:26:54;98890.94;;;25.42;37.83
29879;BME280;16752;53.364;-1.488;2023-08-01T13:33:00;98772.97;;;24.83;37.87
29879;BME280;16752;53.364;-1.488;2023-08-01T13:50:15;98793.34;;;25.54;36.62
29879;BME280;16752;53.364;-1.488;2023-08-01T13:53:00;98886.78;;;27.06;35.19
29879;BME280;16752;53.364;-1.488;2023-08-01T13:55:57;98822.84;;;26.92;35.57
29879;BME280;16752;53.364;-1.488;2023-08-01T14:01:50;98810.06;;;26.37;35.49
29879;BME280;16752;53.364;-1.488;2023-08-01T14:04:51;98762.78;;;26.36;35.39
29879;BME280;16752;53.364;-1.488;2023-08-01T14:07:54;98876.09;;;26.49;34.69
29879;BME280;16752;53.364;-1.488;2023-08-01T14:11:19;98875.66;;;26.41;35.85
29879;BME280;16752;53.364;-1.488;2023-08-01T15:05:31;98904.13;;;26.42;36.96
29879;BME280;16752;53.364;-1.488;2023-08-01T15:17:53;98761.28;;;24.66;37.68
29879;BME280;16752;53.364;-1.488;2023-08-01T15:45:39;98843.78;;;28.22;32.06
29879;BME280;16752;53.364;-1.488;2023-08-01T15:49:07;98827.06;;;29.86;30.06
29879;BME280;16752;53.364;-1.488;2023-08-01T15:52:13;98799.19;;;28.58;31.66
29879;BME280;16752;53.364;-1.488;2023-08-01T15:55:11;98818.69;;;27.73;33.52
29879;BME280;16752;53.364;-1.488;2023-08-01T16:08:58;98799.22;;;26.32;35.40
29879;BME280;16752;53.364;-1.488;2023-08-01T16:14:42;98801.91;;;27.10;35.34
29879;BME280;16752;53.364;-1.488;2023-08-01T16:23:04;98761.91;;;26.64;35.86
29879;BME280;16752;53.364;-1.488;2023-08-01T16:25:53;98808.34;;;27.26;34.95
29879;BME280;16752;53.364;-1.488;2023-08-01T16:29:12;98724.78;;;26.44;35.77
29879;BME280;16752;53.364;-1.488;2023-08-01T16:35:29;98782.03;;;26.61;35.80
29879;BME280;16752;53.364;-1.488;2023-08-01T16:42:11;98707.28;;;26.92;35.08
29879;BME280;16752;53.364;-1.488;2023-08-01T16:45:11;98699.66;;;25.88;35.60
29879;BME280;16752;53.364;-1.488;2023-08-01T16:51:32;98732.63;;;26.62;35.03
29879;BME280;16752;53.364;-1.488;2023-08-01T16:54:38;98747.91;;;26.16;35.97
29879;BME280;16752;53.364;-1.488;2023-08-01T16:57:23;98756.53;;;25.50;36.86
29879;BME280;16752;53.364;-1.488;2023-08-01T17:00:14;98769.66;;;25.75;37.01
29879;BME280;16752;53.364;-1.488;2023-08-01T17:06:45;98680.97;;;24.78;38.52
29879;BME280;16752;53.364;-1.488;2023-08-01T17:09:46;98810.06;;;25.97;37.92
29879;BME280;16752;53.364;-1.488;2023-08-01T17:13:06;98812.47;;;25.58;38.19
29879;BME280;16752;53.364;-1.488;2023-08-01T17:15:50;98730.78;;;24.90;38.29
29879;BME280;16752;53.364;-1.488;2023-08-01T17:18:41;98820.53;;;25.70;38.25
29879;BME280;16752;53.364;-1.488;2023-08-01T17:33:57;98789.97;;;25.59;38.20
29879;BME280;16752;53.364;-1.488;2023-08-01T17:36:42;98755.84;;;24.73;38.74
29879;BME280;16752;53.364;-1.488;2023-08-01T17:39:34;98706.97;;;25.01;37.94
29879;BME280;16752;53.364;-1.488;2023-08-01T17:42:23;98645.53;;;24.87;37.96
29879;BME280;16752;53.364;-1.488;2023-08-01T17:45:07;98709.03;;;25.22;38.13
29879;BME280;16752;53.364;-1.488;2023-08-01T17:47:53;98748.56;;;25.67;38.04
29879;BME280;16752;53.364;-1.488;2023-08-01T17:50:41;98718.03;;;25.68;37.56
29879;BME280;16752;53.364;-1.488;2023-08-01T17:53:25;98774.34;;;26.08;37.63
29879;BME280;16752;53.364;-1.488;2023-08-01T17:56:11;98768.19;;;25.44;38.36
29879;BME280;16752;53.364;-1.488;2023-08-01T17:58:55;98755.34;;;24.52;39.91
29879;BME280;16752;53.364;-1.488;2023-08-01T18:01:39;98744.25;;;25.66;38.01
29879;BME280;16752;53.364;-1.488;2023-08-01T18:04:23;98709.81;;;25.34;38.38
29879;BME280;16752;53.364;-1.488;2023-08-01T18:07:07;98737.34;;;25.81;38.18
29879;BME280;16752;53.364;-1.488;2023-08-01T18:09:51;98703.75;;;26.07;37.42
29879;BME280;16752;53.364;-1.488;2023-08-01T18:12:35;98731.44;;;25.96;37.70
29879;BME280;16752;53.364;-1.488;2023-08-01T18:15:19;98741.47;;;25.61;38.75
29879;BME280;16752;53.364;-1.488;2023-08-01T18:18:04;98628.88;;;25.09;38.08
29879;BME280;16752;53.364;-1.488;2023-08-01T18:21:00;98673.03;;;25.06;38.75
29879;BME280;16752;53.364;-1.488;2023-08-01T18:23:45;98724.84;;;25.87;38.17
29879;BME280;16752;53.364;-1.488;2023-08-01T18:26:29;98619.97;;;25.32;37.97
29879;BME280;16752;53.364;-1.488;2023-08-01T18:29:13;98707.06;;;25.69;37.63
29879;BME280;16752;53.364;-1.488;2023-08-01T18:31:57;98703.72;;;25.91;37.76
29879;BME280;16752;53.364;-1.488;2023-08-01T18:34:41;98731.84;;;25.88;37.53
29879;BME280;16752;53.364;-1.488;2023-08-01T18:37:26;98609.66;;;25.12;37.45
29879;BME280;16752;53.364;-1.488;2023-08-01T18:40:10;98654.13;;;25.65;37.39
29879;BME280;16752;53.364;-1.488;2023-08-01T18:42:54;98706.31;;;26.02;38.25
29879;BME280;16752;53.364;-1.488;2023-08-01T18:45:38;98676.22;;;25.83;38.51
29879;BME280;16752;53.364;-1.488;2023-08-01T18:48:22;98740.84;;;26.10;39.37
29879;BME280;16752;53.364;-1.488;2023-08-01T18:51:14;98734.09;;;26.08;38.25
29879;BME280;16752;53.364;-1.488;2023-08-01T18:53:59;98716.06;;;25.92;38.49
29879;BME280;16752;53.364;-1.488;2023-08-01T18:56:43;98683.84;;;25.75;38.25
29879;BME280;16752;53.364;-1.488;2023-08-01T19:12:57;98706.13;;;26.04;38.85
29879;BME280;16752;53.364;-1.488;2023-08-01T19:16:22;98703.75;;;26.07;39.03
29879;BME280;16752;53.364;-1.488;2023-08-01T19:19:54;98587.19;;;25.41;39.59
29879;BME280;16752;53.364;-1.488;2023-08-01T19:22:44;98533.00;;;25.11;39.39
29879;BME280;16752;53.364;-1.488;2023-08-01T19:26:26;98559.44;;;25.36;39.96
29879;BME280;16752;53.364;-1.488;2023-08-01T19:33:36;98555.47;;;25.67;39.35
29879;BME280;16752;53.364;-1.488;2023-08-01T19:36:33;98501.94;;;25.26;39.21
29879;BME280;16752;53.364;-1.488;2023-08-01T19:40:06;98598.00;;;25.75;39.72
29879;BME280;16752;53.364;-1.488;2023-08-01T19:43:21;98568.59;;;25.51;39.75
29879;BME280;16752;53.364;-1.488;2023-08-01T19:46:14;98661.31;;;26.04;40.33
29879;BME280;16752;53.364;-1.488;2023-08-01T19:49:12;98609.00;;;25.62;40.24
29879;BME280;16752;53.364;-1.488;2023-08-01T19:51:56;98653.59;;;25.79;40.34
29879;BME280;16752;53.364;-1.488;2023-08-01T19:54:50;98571.38;;;25.28;40.58
29879;BME280;16752;53.364;-1.488;2023-08-01T19:57:37;98647.56;;;25.72;40.50
29879;BME280;16752;53.364;-1.488;2023-08-01T20:00:32;98615.63;;;25.42;40.98
29879;BME280;16752;53.364;-1.488;2023-08-01T20:03:24;98594.16;;;25.14;40.64
29879;BME280;16752;53.364;-1.488;2023-08-01T20:06:24;98595.81;;;25.03;40.90
29879;BME280;16752;53.364;-1.488;2023-08-01T20:09:40;98659.25;;;25.26;40.98
29879;BME280;16752;53.364;-1.488;2023-08-01T20:12:33;98650.91;;;25.11;41.17
29879;BME280;16752;53.364;-1.488;2023-08-01T20:15:25;98512.34;;;24.07;41.42
29879;BME280;16752;53.364;-1.488;2023-08-01T20:18:10;98571.44;;;24.29;41.92
29879;BME280;16752;53.364;-1.488;2023-08-01T20:20:54;98615.53;;;24.38;42.36
29879;BME280;16752;53.364;-1.488;2023-08-01T20:23:38;98616.53;;;24.26;42.48
29879;BME280;16752;53.364;-1.488;2023-08-01T20:26:22;98648.72;;;24.37;42.68
29879;BME280;16752;53.364;-1.488;2023-08-01T20:29:05;98593.59;;;23.95;42.54
29879;BME280;16752;53.364;-1.488;2023-08-01T20:31:49;98648.84;;;24.31;42.87
29879;BME280;16752;53.364;-1.488;2023-08-01T20:34:34;98659.31;;;24.32;43.09
29879;BME280;16752;53.364;-1.488;2023-08-01T20:37:19;98603.84;;;23.98;43.05
29879;BME280;16752;53.364;-1.488;2023-08-01T20:40:04;98554.38;;;23.65;43.27
29879;BME280;16752;53.364;-1.488;2023-08-01T20:42:51;98528.25;;;23.49;43.55
29879;BME280;16752;53.364;-1.488;2023-08-01T20:45:35;98563.63;;;23.63;43.73
29879;BME280;16752;53.364;-1.488;2023-08-01T20:48:19;98616.16;;;23.99;43.74
29879;BME280;16752;53.364;-1.488;2023-08-01T20:51:03;98533.34;;;23.39;43.83
29879;BME280;16752;53.364;-1.488;2023-08-01T20:53:48;98645.84;;;24.09;43.95
29879;BME280;16752;53.364;-1.488;2023-08-01T20:56:33;98553.00;;;23.44;44.02
29879;BME280;16752;53.364;-1.488;2023-08-01T20:59:17;98551.16;;;23.45;44.04
29879;BME280;16752;53.364;-1.488;2023-08-01T21:02:02;98632.56;;;24.02;44.11
29879;BME280;16752;53.364;-1.488;2023-08-01T21:04:46;98602.06;;;23.80;44.27
29879;BME280;16752;53.364;-1.488;2023-08-01T21:07:31;98622.91;;;23.90;44.08
29879;BME280;16752;53.364;-1.488;2023-08-01T23:26:44;98351.75;;;23.91;45.57
29879;BME280;16752;53.364;-1.488;2023-08-01T23:29:31;98252.75;;;23.39;45.50
29879;BME280;16752;53.364;-1.488;2023-08-01T23:32:18;98227.56;;;23.35;45.63
29879;BME280;16752;53.364;-1.488;2023-08-01T23:35:04;98166.28;;;22.93;45.43
29879;BME280;16752;53.364;-1.488;2023-08-01T23:37:51;98249.59;;;23.54;45.67
29879;BME280;16752;53.364;-1.488;2023-08-01T23:40:36;98256.81;;;23.53;45.66
29879;BME280;16752;53.364;-1.488;2023-08-01T23:43:21;98215.72;;;23.31;45.68
29879;BME280;16752;53.364;-1.488;2023-08-01T23:46:05;98225.72;;;23.24;46.32
29879;BME280;16752;53.364;-1.488;2023-08-01T23:48:49;98187.63;;;23.28;46.01
29879;BME280;16752;53.364;-1.488;2023-08-01T23:51:44;98198.53;;;23.27;46.05
29879;BME280;16752;53.364;-1.488;2023-08-01T23:54:31;98214.19;;;23.35;45.58
29879;BME280;16752;53.364;-1.488;2023-08-01T23:57:23;98254.25;;;23.70;45.72
